sensor_id;sensor_type;location;lat;lon;timestamp;pressure;altitude;pressure_sealevel;temperature;humidity
59987;BME280;46181;51.498;5.392;2023-05-07T00:03:36;101503.9;;;19.98;59.67871
59987;BME280;46181;51.498;5.392;2023-05-07T00:08:06;101505.1;;;20.02;59.51172
59987;BME280;46181;51.498;5.392;2023-05-07T00:12:36;101497.5;;;20.05;59.48047
59987;BME280;46181;51.498;5.392;2023-05-07T00:17:06;101496.4;;;20.07;59.31152
59987;BME280;46181;51.498;5.392;2023-05-07T00:21:36;101490.3;;;20.04;59.34277
59987;BME280;46181;51.498;5.392;2023-05-07T00:26:06;101486.9;;;19.98;59.36914
59987;BME280;46181;51.498;5.392;2023-05-07T00:30:36;101488.8;;;19.92;59.47559
59987;BME280;46181;51.498;5.392;2023-05-07T00:35:07;101485.1;;;19.93;59.53418
59987;BME280;46181;51.498;5.392;2023-05-07T00:39:36;101479.7;;;19.94;59.41016
59987;BME280;46181;51.498;5.392;2023-05-07T00:44:06;101478.7;;;19.95;59.57129
59987;BME280;46181;51.498;5.392;2023-05-07T00:48:36;101475.4;;;19.97;59.64258
59987;BME280;46181;51.498;5.392;2023-05-07T00:53:07;101471;;;19.98;59.66797
59987;BME280;46181;51.498;5.392;2023-05-07T00:57:37;101468.2;;;20.01;59.5332
59987;BME280;46181;51.498;5.392;2023-05-07T01:02:06;101471.4;;;20;59.58984
59987;BME280;46181;51.498;5.392;2023-05-07T01:06:38;101472.9;;;20.03;59.59277
59987;BME280;46181;51.498;5.392;2023-05-07T01:11:07;101472.6;;;20.05;59.5957
59987;BME280;46181;51.498;5.392;2023-05-07T01:15:36;101471.7;;;20.06;59.58496
59987;BME280;46181;51.498;5.392;2023-05-07T01:20:08;101467.4;;;20.07;59.72559
59987;BME280;46181;51.498;5.392;2023-05-07T01:24:36;101457.5;;;20.04;59.74512
59987;BME280;46181;51.498;5.392;2023-05-07T01:29:06;101446.8;;;20;59.77344
59987;BME280;46181;51.498;5.392;2023-05-07T01:33:38;101440.8;;;19.93;59.82129
59987;BME280;46181;51.498;5.392;2023-05-07T01:38:07;101442.3;;;19.84;59.95898
59987;BME280;46181;51.498;5.392;2023-05-07T01:42:37;101443.6;;;19.76;60.10938
59987;BME280;46181;51.498;5.392;2023-05-07T01:47:07;101441.4;;;19.74;60.20996
59987;BME280;46181;51.498;5.392;2023-05-07T01:51:36;101435.8;;;19.71;60.35547
59987;BME280;46181;51.498;5.392;2023-05-07T01:56:07;101437.9;;;19.68;60.53418
59987;BME280;46181;51.498;5.392;2023-05-07T02:00:37;101432.3;;;19.65;60.65527
59987;BME280;46181;51.498;5.392;2023-05-07T02:05:08;101432.1;;;19.61;60.8125
59987;BME280;46181;51.498;5.392;2023-05-07T02:09:36;101434;;;19.57;60.92285
59987;BME280;46181;51.498;5.392;2023-05-07T02:14:06;101431.1;;;19.56;60.96582
59987;BME280;46181;51.498;5.392;2023-05-07T02:18:36;101432.3;;;19.56;61.03516
59987;BME280;46181;51.498;5.392;2023-05-07T02:23:06;101441;;;19.58;61.08496
59987;BME280;46181;51.498;5.392;2023-05-07T02:27:36;101442.5;;;19.6;61.20215
59987;BME280;46181;51.498;5.392;2023-05-07T02:32:06;101446.3;;;19.61;61.17969
59987;BME280;46181;51.498;5.392;2023-05-07T02:36:36;101446.5;;;19.62;61.16992
59987;BME280;46181;51.498;5.392;2023-05-07T02:41:06;101446.5;;;19.65;61.24121
59987;BME280;46181;51.498;5.392;2023-05-07T02:45:36;101444.2;;;19.65;61.31055
59987;BME280;46181;51.498;5.392;2023-05-07T02:50:07;101448.6;;;19.66;61.33594
59987;BME280;46181;51.498;5.392;2023-05-07T02:54:36;101452.8;;;19.68;61.36133
59987;BME280;46181;51.498;5.392;2023-05-07T02:59:06;101454.3;;;19.67;61.2793
59987;BME280;46181;51.498;5.392;2023-05-07T03:03:36;101444.7;;;19.66;61.3584
59987;BME280;46181;51.498;5.392;2023-05-07T03:08:07;101438.5;;;19.65;61.4707
59987;BME280;46181;51.498;5.392;2023-05-07T03:12:37;101436.2;;;19.63;61.52734
59987;BME280;46181;51.498;5.392;2023-05-07T03:17:06;101438;;;19.6;61.62695
59987;BME280;46181;51.498;5.392;2023-05-07T03:21:36;101436.6;;;19.59;61.69434
59987;BME280;46181;51.498;5.392;2023-05-07T03:26:06;101429.2;;;19.59;61.8877
59987;BME280;46181;51.498;5.392;2023-05-07T03:30:37;101429.8;;;19.61;61.9375
59987;BME280;46181;51.498;5.392;2023-05-07T03:35:07;101429.7;;;19.61;61.99512
59987;BME280;46181;51.498;5.392;2023-05-07T03:39:36;101428.1;;;19.61;61.97266
59987;BME280;46181;51.498;5.392;2023-05-07T03:44:07;101423.5;;;19.6;62.02832
59987;BME280;46181;51.498;5.392;2023-05-07T03:48:36;101426;;;19.6;62.0957
59987;BME280;46181;51.498;5.392;2023-05-07T03:53:06;101424.4;;;19.61;62.12109
59987;BME280;46181;51.498;5.392;2023-05-07T03:57:36;101432.8;;;19.62;62.09863
59987;BME280;46181;51.498;5.392;2023-05-07T04:02:07;101432.3;;;19.6;62.13184
59987;BME280;46181;51.498;5.392;2023-05-07T04:06:36;101443.2;;;19.6;62.2002
59987;BME280;46181;51.498;5.392;2023-05-07T04:11:09;101447.7;;;19.58;62.32324
59987;BME280;46181;51.498;5.392;2023-05-07T04:15:36;101452.8;;;19.61;62.31641
59987;BME280;46181;51.498;5.392;2023-05-07T04:20:08;101458.5;;;19.61;62.37402
59987;BME280;46181;51.498;5.392;2023-05-07T04:24:39;101455;;;19.6;62.49805
59987;BME280;46181;51.498;5.392;2023-05-07T04:29:06;101458;;;19.65;62.4707
59987;BME280;46181;51.498;5.392;2023-05-07T04:33:36;101457;;;19.67;62.46191
59987;BME280;46181;51.498;5.392;2023-05-07T04:38:06;101448.8;;;19.68;62.40625
59987;BME280;46181;51.498;5.392;2023-05-07T04:42:36;101449.1;;;19.67;62.54102
59987;BME280;46181;51.498;5.392;2023-05-07T04:47:06;101454.9;;;19.68;62.60059
59987;BME280;46181;51.498;5.392;2023-05-07T04:51:37;101456.1;;;19.66;62.63281
59987;BME280;46181;51.498;5.392;2023-05-07T04:56:10;101462.7;;;19.62;62.77539
59987;BME280;46181;51.498;5.392;2023-05-07T05:00:37;101470.8;;;19.69;62.75098
59987;BME280;46181;51.498;5.392;2023-05-07T05:05:07;101467.3;;;19.74;62.85059
59987;BME280;46181;51.498;5.392;2023-05-07T05:09:37;101472.1;;;19.83;62.66992
59987;BME280;46181;51.498;5.392;2023-05-07T05:14:07;101473.6;;;19.92;62.57715
59987;BME280;46181;51.498;5.392;2023-05-07T05:18:36;101469.6;;;20.04;62.59375
59987;BME280;46181;51.498;5.392;2023-05-07T05:23:07;101471.7;;;20.12;62.50293
59987;BME280;46181;51.498;5.392;2023-05-07T05:27:37;101479.1;;;20.22;62.1377
59987;BME280;46181;51.498;5.392;2023-05-07T05:32:07;101481.8;;;20.33;62.3125
59987;BME280;46181;51.498;5.392;2023-05-07T05:36:36;101485.8;;;20.4;62.1748
59987;BME280;46181;51.498;5.392;2023-05-07T05:41:07;101487.9;;;20.52;62.13184
59987;BME280;46181;51.498;5.392;2023-05-07T05:45:37;101491.1;;;20.56;61.93164
59987;BME280;46181;51.498;5.392;2023-05-07T05:50:07;101499.6;;;20.62;61.61816
59987;BME280;46181;51.498;5.392;2023-05-07T05:54:36;101496.3;;;20.61;61.67383
59987;BME280;46181;51.498;5.392;2023-05-07T05:59:07;101493.4;;;20.64;61.73535
59987;BME280;46181;51.498;5.392;2023-05-07T06:03:37;101496.5;;;20.73;61.82715
59987;BME280;46181;51.498;5.392;2023-05-07T06:08:07;101494;;;20.81;61.47168
59987;BME280;46181;51.498;5.392;2023-05-07T06:12:37;101498.2;;;20.83;61.12793
59987;BME280;46181;51.498;5.392;2023-05-07T06:17:06;101498.4;;;20.87;61.38672
59987;BME280;46181;51.498;5.392;2023-05-07T06:21:37;101501.1;;;20.99;61.20801
59987;BME280;46181;51.498;5.392;2023-05-07T06:26:07;101497.6;;;21.04;60.68555
59987;BME280;46181;51.498;5.392;2023-05-07T06:30:37;101491;;;21.09;60.58789
59987;BME280;46181;51.498;5.392;2023-05-07T06:35:07;101497.4;;;21.23;60.68848
59987;BME280;46181;51.498;5.392;2023-05-07T06:39:37;101499.4;;;21.41;60.61914
59987;BME280;46181;51.498;5.392;2023-05-07T06:44:07;101501.7;;;21.52;60.4502
59987;BME280;46181;51.498;5.392;2023-05-07T06:48:37;101511.7;;;21.61;60.25488
59987;BME280;46181;51.498;5.392;2023-05-07T06:53:07;101518.2;;;21.66;59.7998
59987;BME280;46181;51.498;5.392;2023-05-07T06:57:37;101520.9;;;21.62;59.50488
59987;BME280;46181;51.498;5.392;2023-05-07T07:02:07;101524.4;;;21.54;59.48242
59987;BME280;46181;51.498;5.392;2023-05-07T07:06:37;101523;;;21.53;59.43555
59987;BME280;46181;51.498;5.392;2023-05-07T07:11:07;101520.9;;;21.51;59.20215
59987;BME280;46181;51.498;5.392;2023-05-07T07:15:37;101520.3;;;21.45;59.15039
59987;BME280;46181;51.498;5.392;2023-05-07T07:20:07;101520.1;;;21.46;59.10352
59987;BME280;46181;51.498;5.392;2023-05-07T07:24:37;101523.7;;;21.44;59.04297
59987;BME280;46181;51.498;5.392;2023-05-07T07:29:07;101528.6;;;21.57;58.93359
59987;BME280;46181;51.498;5.392;2023-05-07T07:33:37;101533.9;;;21.77;58.87891
59987;BME280;46181;51.498;5.392;2023-05-07T07:38:07;101537.3;;;21.97;58.24805
59987;BME280;46181;51.498;5.392;2023-05-07T07:42:37;101544.6;;;22.15;58.10938
59987;BME280;46181;51.498;5.392;2023-05-07T07:47:07;101544.9;;;22.33;57.38086
59987;BME280;46181;51.498;5.392;2023-05-07T07:51:37;101542.3;;;22.54;56.75977
59987;BME280;46181;51.498;5.392;2023-05-07T07:56:07;101538.7;;;22.74;56.75
59987;BME280;46181;51.498;5.392;2023-05-07T08:00:37;101542.2;;;23;55.86719
59987;BME280;46181;51.498;5.392;2023-05-07T08:05:07;101538.6;;;23.09;55.57715
59987;BME280;46181;51.498;5.392;2023-05-07T08:09:37;101538.5;;;23.24;55.15625
59987;BME280;46181;51.498;5.392;2023-05-07T08:14:07;101535.3;;;23.5;54.75781
59987;BME280;46181;51.498;5.392;2023-05-07T08:18:37;101539.3;;;23.84;54.34766
59987;BME280;46181;51.498;5.392;2023-05-07T08:23:07;101546.7;;;24.16;53.32617
59987;BME280;46181;51.498;5.392;2023-05-07T08:27:37;101544.3;;;24.29;52.7959
59987;BME280;46181;51.498;5.392;2023-05-07T08:32:07;101543.5;;;24.35;52.1748
59987;BME280;46181;51.498;5.392;2023-05-07T08:36:37;101552.9;;;24.4;51.91211
59987;BME280;46181;51.498;5.392;2023-05-07T08:41:08;101552.2;;;24.51;52.08789
59987;BME280;46181;51.498;5.392;2023-05-07T08:45:39;101553.1;;;24.62;51.44922
59987;BME280;46181;51.498;5.392;2023-05-07T08:50:07;101556.8;;;24.75;50.9043
59987;BME280;46181;51.498;5.392;2023-05-07T08:54:37;101559.4;;;24.94;50.33301
59987;BME280;46181;51.498;5.392;2023-05-07T08:59:07;101559.4;;;25.12;50.01367
59987;BME280;46181;51.498;5.392;2023-05-07T09:03:37;101561;;;25.36;49.91211
59987;BME280;46181;51.498;5.392;2023-05-07T09:08:07;101558.7;;;25.62;49.14648
59987;BME280;46181;51.498;5.392;2023-05-07T09:12:37;101559.5;;;25.58;49.02539
59987;BME280;46181;51.498;5.392;2023-05-07T09:17:07;101562;;;25.61;48.74805
59987;BME280;46181;51.498;5.392;2023-05-07T09:21:37;101563.1;;;25.68;48.80371
59987;BME280;46181;51.498;5.392;2023-05-07T09:26:08;101565.1;;;25.85;48.38867
59987;BME280;46181;51.498;5.392;2023-05-07T09:30:40;101566.3;;;26.04;48.32813
59987;BME280;46181;51.498;5.392;2023-05-07T09:35:08;101564;;;26.39;47.79102
59987;BME280;46181;51.498;5.392;2023-05-07T09:39:47;101564.7;;;26.65;47.38477
59987;BME280;46181;51.498;5.392;2023-05-07T09:44:07;101568.9;;;26.89;46.73047
59987;BME280;46181;51.498;5.392;2023-05-07T09:48:39;101568.5;;;27.03;46.47656
59987;BME280;46181;51.498;5.392;2023-05-07T09:53:07;101570;;;27.22;45.82715
59987;BME280;46181;51.498;5.392;2023-05-07T09:57:38;101572.3;;;27.07;45.96387
59987;BME280;46181;51.498;5.392;2023-05-07T10:02:07;101573.6;;;27.18;45.91602
59987;BME280;46181;51.498;5.392;2023-05-07T10:06:37;101572.9;;;27.34;45.47461
59987;BME280;46181;51.498;5.392;2023-05-07T10:11:07;101571.6;;;27.35;45.57031
59987;BME280;46181;51.498;5.392;2023-05-07T10:15:37;101570.7;;;27.25;45.17285
59987;BME280;46181;51.498;5.392;2023-05-07T10:20:07;101572.4;;;27.3;45.53027
59987;BME280;46181;51.498;5.392;2023-05-07T10:24:40;101573.8;;;27.45;44.6875
59987;BME280;46181;51.498;5.392;2023-05-07T10:29:10;101567.5;;;27.67;44.5918
59987;BME280;46181;51.498;5.392;2023-05-07T10:33:38;101569.6;;;27.85;43.90527
59987;BME280;46181;51.498;5.392;2023-05-07T10:38:07;101567.3;;;28.06;43.7373
59987;BME280;46181;51.498;5.392;2023-05-07T10:42:37;101568.7;;;28.36;43.22363
59987;BME280;46181;51.498;5.392;2023-05-07T10:47:17;101564.2;;;28.37;42.18848
59987;BME280;46181;51.498;5.392;2023-05-07T10:51:38;101563.9;;;28.15;42.16895
59987;BME280;46181;51.498;5.392;2023-05-07T10:56:27;101569.1;;;27.74;43.25977
59987;BME280;46181;51.498;5.392;2023-05-07T11:00:49;101569.5;;;27.7;43.44238
59987;BME280;46181;51.498;5.392;2023-05-07T11:05:24;101573.4;;;27.65;43.41504
59987;BME280;46181;51.498;5.392;2023-05-07T11:10:07;101575.9;;;27.63;43.42578
59987;BME280;46181;51.498;5.392;2023-05-07T11:14:07;101578.6;;;28.06;42.61914
59987;BME280;46181;51.498;5.392;2023-05-07T11:18:55;101573.6;;;28.41;42.29883
59987;BME280;46181;51.498;5.392;2023-05-07T11:23:07;101572.8;;;28.87;41.5752
59987;BME280;46181;51.498;5.392;2023-05-07T11:27:37;101572;;;29.41;40.33789
59987;BME280;46181;51.498;5.392;2023-05-07T11:32:07;101568.3;;;30.03;38.9502
59987;BME280;46181;51.498;5.392;2023-05-07T11:36:41;101570.3;;;30.5;37.72266
59987;BME280;46181;51.498;5.392;2023-05-07T11:41:08;101565.7;;;30.58;36.61621
59987;BME280;46181;51.498;5.392;2023-05-07T11:45:37;101565.2;;;30.4;36.61328
59987;BME280;46181;51.498;5.392;2023-05-07T11:50:11;101564.8;;;30.32;36.52441
59987;BME280;46181;51.498;5.392;2023-05-07T11:54:44;101565.9;;;30.03;36.77344
59987;BME280;46181;51.498;5.392;2023-05-07T11:59:07;101568.6;;;29.8;37.07324
59987;BME280;46181;51.498;5.392;2023-05-07T12:03:37;101566.4;;;29.33;37.50781
59987;BME280;46181;51.498;5.392;2023-05-07T12:08:09;101566.6;;;28.89;38.47461
59987;BME280;46181;51.498;5.392;2023-05-07T12:12:41;101552.9;;;28.54;38.39746
59987;BME280;46181;51.498;5.392;2023-05-07T12:17:07;101562;;;28.09;38.95996
59987;BME280;46181;51.498;5.392;2023-05-07T12:21:38;101574.1;;;28.05;39.36914
59987;BME280;46181;51.498;5.392;2023-05-07T12:26:08;101585.2;;;27.94;39.37109
59987;BME280;46181;51.498;5.392;2023-05-07T12:30:40;101597.9;;;27.7;39.80859
59987;BME280;46181;51.498;5.392;2023-05-07T12:35:08;101606.8;;;27;39.99414
59987;BME280;46181;51.498;5.392;2023-05-07T12:39:37;101611;;;26.29;41.26953
59987;BME280;46181;51.498;5.392;2023-05-07T12:44:09;101626.3;;;25.45;43.69531
59987;BME280;46181;51.498;5.392;2023-05-07T12:48:37;101637.1;;;24.1;47.46777
59987;BME280;46181;51.498;5.392;2023-05-07T12:53:07;101648.7;;;22.94;50.58398
59987;BME280;46181;51.498;5.392;2023-05-07T12:57:42;101654.7;;;22.22;53.33984
59987;BME280;46181;51.498;5.392;2023-05-07T13:02:07;101664.2;;;21.83;55.09668
59987;BME280;46181;51.498;5.392;2023-05-07T13:06:37;101673;;;21.59;55.70313
59987;BME280;46181;51.498;5.392;2023-05-07T13:11:08;101675.4;;;21.49;55.99121
59987;BME280;46181;51.498;5.392;2023-05-07T13:15:37;101684.4;;;21.5;56.24707
59987;BME280;46181;51.498;5.392;2023-05-07T13:20:08;101688.3;;;21.53;55.68457
59987;BME280;46181;51.498;5.392;2023-05-07T13:24:37;101687.1;;;21.56;55.49219
59987;BME280;46181;51.498;5.392;2023-05-07T13:29:07;101684.1;;;21.6;55.38184
59987;BME280;46181;51.498;5.392;2023-05-07T13:33:37;101673.3;;;21.67;55.36621
59987;BME280;46181;51.498;5.392;2023-05-07T13:38:07;101676.5;;;21.71;55.34863
59987;BME280;46181;51.498;5.392;2023-05-07T13:42:37;101672.2;;;21.88;55.36914
59987;BME280;46181;51.498;5.392;2023-05-07T13:47:07;101680.2;;;21.93;55.29492
59987;BME280;46181;51.498;5.392;2023-05-07T13:51:37;101675.1;;;21.93;55.91895
59987;BME280;46181;51.498;5.392;2023-05-07T13:56:07;101674.1;;;22.08;56.63184
59987;BME280;46181;51.498;5.392;2023-05-07T14:00:37;101679.2;;;22.53;55.95996
59987;BME280;46181;51.498;5.392;2023-05-07T14:05:07;101682.8;;;22.86;55.43359
59987;BME280;46181;51.498;5.392;2023-05-07T14:09:37;101679.4;;;23.24;55.00391
59987;BME280;46181;51.498;5.392;2023-05-07T14:14:07;101678;;;23.45;54.7627
59987;BME280;46181;51.498;5.392;2023-05-07T14:18:37;101674.6;;;23.63;54.54297
59987;BME280;46181;51.498;5.392;2023-05-07T14:23:07;101676.6;;;23.76;54.45313
59987;BME280;46181;51.498;5.392;2023-05-07T14:27:37;101670.9;;;23.85;54.36035
59987;BME280;46181;51.498;5.392;2023-05-07T14:32:07;101675.2;;;23.97;54.31543
59987;BME280;46181;51.498;5.392;2023-05-07T14:36:37;101682.6;;;24.05;54.2666
59987;BME280;46181;51.498;5.392;2023-05-07T14:41:07;101692.5;;;24.13;55.63574
59987;BME280;46181;51.498;5.392;2023-05-07T14:45:37;101691.2;;;24.16;56.99805
59987;BME280;46181;51.498;5.392;2023-05-07T14:50:08;101691.9;;;24.16;57.46289
59987;BME280;46181;51.498;5.392;2023-05-07T14:54:37;101699.4;;;24.11;57.54004
59987;BME280;46181;51.498;5.392;2023-05-07T14:59:07;101700;;;23.94;57.79688
59987;BME280;46181;51.498;5.392;2023-05-07T15:03:37;101701.7;;;23.81;58.10352
59987;BME280;46181;51.498;5.392;2023-05-07T15:08:07;101707.9;;;23.63;58.41797
59987;BME280;46181;51.498;5.392;2023-05-07T15:12:37;101710.6;;;23.46;59.04395
59987;BME280;46181;51.498;5.392;2023-05-07T15:17:07;101709.3;;;23.37;59.51953
59987;BME280;46181;51.498;5.392;2023-05-07T15:21:37;101718.7;;;23.35;59.65527
59987;BME280;46181;51.498;5.392;2023-05-07T15:26:07;101713.1;;;23.35;60.17676
59987;BME280;46181;51.498;5.392;2023-05-07T15:30:37;101709.8;;;23.37;60.2959
59987;BME280;46181;51.498;5.392;2023-05-07T15:35:08;101710.3;;;23.45;60.74609
59987;BME280;46181;51.498;5.392;2023-05-07T15:39:37;101707.8;;;23.75;60.6123
59987;BME280;46181;51.498;5.392;2023-05-07T15:44:07;101702.5;;;24.01;59.9502
59987;BME280;46181;51.498;5.392;2023-05-07T15:48:37;101695.7;;;24.22;59.67871
59987;BME280;46181;51.498;5.392;2023-05-07T15:53:07;101693.1;;;24.28;59.36035
59987;BME280;46181;51.498;5.392;2023-05-07T15:57:37;101689.3;;;24.45;59.08105
59987;BME280;46181;51.498;5.392;2023-05-07T16:02:07;101686.3;;;24.42;58.29883
59987;BME280;46181;51.498;5.392;2023-05-07T16:06:37;101682.3;;;24.35;58.71973
59987;BME280;46181;51.498;5.392;2023-05-07T16:11:07;101681.9;;;24.37;58.00195
59987;BME280;46181;51.498;5.392;2023-05-07T16:15:37;101681.5;;;24.24;57.45117
59987;BME280;46181;51.498;5.392;2023-05-07T16:20:08;101684.3;;;24.2;57.58594
59987;BME280;46181;51.498;5.392;2023-05-07T16:24:37;101690.8;;;24.26;57.33789
59987;BME280;46181;51.498;5.392;2023-05-07T16:29:08;101691.8;;;24.4;57.64648
59987;BME280;46181;51.498;5.392;2023-05-07T16:33:37;101694.2;;;24.55;56.6416
59987;BME280;46181;51.498;5.392;2023-05-07T16:38:07;101694.5;;;24.57;56.29492
59987;BME280;46181;51.498;5.392;2023-05-07T16:42:37;101708.4;;;24.5;56.31055
59987;BME280;46181;51.498;5.392;2023-05-07T16:47:07;101713.8;;;24.35;56.20996
59987;BME280;46181;51.498;5.392;2023-05-07T16:51:37;101718.6;;;24.11;56.56445
59987;BME280;46181;51.498;5.392;2023-05-07T16:56:07;101720.1;;;23.96;56.37012
59987;BME280;46181;51.498;5.392;2023-05-07T17:00:37;101726;;;23.77;56.77539
59987;BME280;46181;51.498;5.392;2023-05-07T17:05:07;101728;;;23.54;56.79297
59987;BME280;46181;51.498;5.392;2023-05-07T17:09:37;101729.1;;;23.35;56.24902
59987;BME280;46181;51.498;5.392;2023-05-07T17:14:07;101723.9;;;23.26;56.81641
59987;BME280;46181;51.498;5.392;2023-05-07T17:18:37;101730.6;;;23.2;57.0166
59987;BME280;46181;51.498;5.392;2023-05-07T17:23:07;101733.7;;;23.16;57.10449
59987;BME280;46181;51.498;5.392;2023-05-07T17:27:37;101732.9;;;23.09;57.21289
59987;BME280;46181;51.498;5.392;2023-05-07T17:32:07;101737.4;;;23;57.23438
59987;BME280;46181;51.498;5.392;2023-05-07T17:36:37;101740.1;;;22.88;57.09277
59987;BME280;46181;51.498;5.392;2023-05-07T17:41:07;101745.7;;;22.81;57.41992
59987;BME280;46181;51.498;5.392;2023-05-07T17:45:37;101744.3;;;22.71;57.23242
59987;BME280;46181;51.498;5.392;2023-05-07T17:50:08;101758.9;;;22.63;57.61426
59987;BME280;46181;51.498;5.392;2023-05-07T17:54:37;101769.1;;;22.55;57.52539
59987;BME280;46181;51.498;5.392;2023-05-07T17:59:07;101771.9;;;22.48;57.66504
59987;BME280;46181;51.498;5.392;2023-05-07T18:03:37;101766.7;;;22.39;57.64258
59987;BME280;46181;51.498;5.392;2023-05-07T18:08:07;101765.8;;;22.3;57.72363
59987;BME280;46181;51.498;5.392;2023-05-07T18:12:37;101775.2;;;22.34;58.14551
59987;BME280;46181;51.498;5.392;2023-05-07T18:17:07;101779.6;;;22.39;58.46191
59987;BME280;46181;51.498;5.392;2023-05-07T18:21:37;101778.2;;;22.44;58.45801
59987;BME280;46181;51.498;5.392;2023-05-07T18:26:07;101781.4;;;22.41;58.61621
59987;BME280;46181;51.498;5.392;2023-05-07T18:30:37;101781.3;;;22.44;58.64258
59987;BME280;46181;51.498;5.392;2023-05-07T18:35:07;101785.9;;;22.45;58.54102
59987;BME280;46181;51.498;5.392;2023-05-07T18:39:37;101782.1;;;22.41;58.48926
59987;BME280;46181;51.498;5.392;2023-05-07T18:44:07;101783.8;;;22.36;58.54102
59987;BME280;46181;51.498;5.392;2023-05-07T18:48:37;101792.1;;;22.27;58.62305
59987;BME280;46181;51.498;5.392;2023-05-07T18:53:07;101799.1;;;22.22;58.93848
59987;BME280;46181;51.498;5.392;2023-05-07T18:57:37;101800.4;;;22.12;59.09961
59987;BME280;46181;51.498;5.392;2023-05-07T19:02:07;101795.1;;;22.09;59.27832
59987;BME280;46181;51.498;5.392;2023-05-07T19:06:37;101796.1;;;22.05;59.30859
59987;BME280;46181;51.498;5.392;2023-05-07T19:11:07;101806.1;;;22;59.37207
59987;BME280;46181;51.498;5.392;2023-05-07T19:15:37;101812.1;;;21.98;59.58887
59987;BME280;46181;51.498;5.392;2023-05-07T19:20:08;101818.6;;;21.93;59.68555
59987;BME280;46181;51.498;5.392;2023-05-07T19:24:37;101824.9;;;21.86;59.74609
59987;BME280;46181;51.498;5.392;2023-05-07T19:29:07;101836.1;;;21.8;60.0957
59987;BME280;46181;51.498;5.392;2023-05-07T19:33:37;101843.9;;;21.79;60.2793
59987;BME280;46181;51.498;5.392;2023-05-07T19:38:07;101846.5;;;21.75;60.30859
59987;BME280;46181;51.498;5.392;2023-05-07T19:42:37;101854.4;;;21.73;60.55957
59987;BME280;46181;51.498;5.392;2023-05-07T19:47:07;101857.7;;;21.73;60.66406
59987;BME280;46181;51.498;5.392;2023-05-07T19:51:37;101855.5;;;21.74;60.69922
59987;BME280;46181;51.498;5.392;2023-05-07T19:56:17;101857.8;;;21.62;60.74121
59987;BME280;46181;51.498;5.392;2023-05-07T20:00:37;101863;;;21.67;60.89648
59987;BME280;46181;51.498;5.392;2023-05-07T20:05:08;101872.9;;;21.66;60.97656
59987;BME280;46181;51.498;5.392;2023-05-07T20:09:37;101867.4;;;21.63;61.09961
59987;BME280;46181;51.498;5.392;2023-05-07T20:14:07;101866.9;;;21.64;61.12402
59987;BME280;46181;51.498;5.392;2023-05-07T20:18:37;101870.1;;;21.66;60.96484
59987;BME280;46181;51.498;5.392;2023-05-07T20:23:07;101870.7;;;21.58;61.0459
59987;BME280;46181;51.498;5.392;2023-05-07T20:27:37;101875.8;;;21.45;61.44531
59987;BME280;46181;51.498;5.392;2023-05-07T20:32:07;101871.3;;;21.32;61.99121
59987;BME280;46181;51.498;5.392;2023-05-07T20:36:37;101880.8;;;21.29;62.48047
59987;BME280;46181;51.498;5.392;2023-05-07T20:41:12;101884.7;;;21.23;62.49707
59987;BME280;46181;51.498;5.392;2023-05-07T20:45:37;101882.2;;;21.27;62.52441
59987;BME280;46181;51.498;5.392;2023-05-07T20:50:08;101878.6;;;21.28;62.60742
59987;BME280;46181;51.498;5.392;2023-05-07T20:54:37;101879.7;;;21.26;62.60352
59987;BME280;46181;51.498;5.392;2023-05-07T20:59:07;101880.9;;;21.26;62.73145
59987;BME280;46181;51.498;5.392;2023-05-07T21:03:37;101886.4;;;21.26;62.86914
59987;BME280;46181;51.498;5.392;2023-05-07T21:08:07;101882;;;21.23;63.02539
59987;BME280;46181;51.498;5.392;2023-05-07T21:12:37;101886.7;;;21.2;63.1377
59987;BME280;46181;51.498;5.392;2023-05-07T21:17:07;101894.5;;;21.17;63.24902
59987;BME280;46181;51.498;5.392;2023-05-07T21:21:37;101891.4;;;21.17;63.35254
59987;BME280;46181;51.498;5.392;2023-05-07T21:26:07;101893.5;;;21.13;63.41504
59987;BME280;46181;51.498;5.392;2023-05-07T21:30:37;101898.2;;;21.14;63.625
59987;BME280;46181;51.498;5.392;2023-05-07T21:35:08;101895.7;;;21.14;63.6123
59987;BME280;46181;51.498;5.392;2023-05-07T21:39:37;101901.2;;;21.13;63.66797
59987;BME280;46181;51.498;5.392;2023-05-07T21:44:07;101902.4;;;21.12;63.72461
59987;BME280;46181;51.498;5.392;2023-05-07T21:48:37;101905.2;;;21.11;63.80371
59987;BME280;46181;51.498;5.392;2023-05-07T21:53:07;101907.7;;;21.11;63.83789
59987;BME280;46181;51.498;5.392;2023-05-07T21:57:37;101906.1;;;21.05;63.74902
59987;BME280;46181;51.498;5.392;2023-05-07T22:02:07;101908;;;21.02;63.6875
59987;BME280;46181;51.498;5.392;2023-05-07T22:06:37;101910.6;;;20.98;63.83203
59987;BME280;46181;51.498;5.392;2023-05-07T22:11:07;101910.5;;;21;63.91406
59987;BME280;46181;51.498;5.392;2023-05-07T22:15:37;101916.1;;;21;63.86719
59987;BME280;46181;51.498;5.392;2023-05-07T22:20:08;101916.3;;;20.97;63.93457
59987;BME280;46181;51.498;5.392;2023-05-07T22:24:37;101914.7;;;20.96;64.05957
59987;BME280;46181;51.498;5.392;2023-05-07T22:29:07;101917.8;;;20.96;64.16309
59987;BME280;46181;51.498;5.392;2023-05-07T22:33:37;101918.1;;;20.96;64.35742
59987;BME280;46181;51.498;5.392;2023-05-07T22:38:07;101923.3;;;20.97;64.26758
59987;BME280;46181;51.498;5.392;2023-05-07T22:42:37;101925;;;20.97;64.1875
59987;BME280;46181;51.498;5.392;2023-05-07T22:47:07;101929;;;20.95;64.16016
59987;BME280;46181;51.498;5.392;2023-05-07T22:51:37;101927.9;;;20.91;64.3623
59987;BME280;46181;51.498;5.392;2023-05-07T22:56:12;101926.2;;;20.82;64.71582
59987;BME280;46181;51.498;5.392;2023-05-07T23:00:37;101922;;;20.78;64.65332
59987;BME280;46181;51.498;5.392;2023-05-07T23:05:10;101928.1;;;20.64;64.88574